createdAt,value
2023-10-05T00:02:27.129Z,87.83
2023-10-05T00:07:27.083Z,87.93
2023-10-05T00:12:26.987Z,88.24
2023-10-05T00:17:27.047Z,88.48
2023-10-05T00:22:26.896Z,88.69
2023-10-05T00:27:26.784Z,88.89
2023-10-05T00:32:26.696Z,89.06
2023-10-05T00:37:26.697Z,89.16
2023-10-05T00:42:26.569Z,89.06
2023-10-05T00:47:26.541Z,88.95
2023-10-05T00:52:26.522Z,88.50
2023-10-05T00:57:26.459Z,88.30
2023-10-05T01:02:26.362Z,88.10
2023-10-05T01:07:26.374Z,87.89
2023-10-05T01:12:26.166Z,87.75
2023-10-05T01:17:26.137Z,87.95
2023-10-05T01:22:26.060Z,87.95
2023-10-05T01:27:25.985Z,87.85
2023-10-05T01:32:25.958Z,87.75
2023-10-05T01:37:25.889Z,87.85
2023-10-05T01:42:25.768Z,87.89
2023-10-05T01:47:25.727Z,87.89
2023-10-05T01:52:25.773Z,88.00
2023-10-05T01:57:25.610Z,88.20
2023-10-05T02:02:25.604Z,88.40
2023-10-05T02:07:25.494Z,88.40
2023-10-05T02:12:25.401Z,88.61
2023-10-05T02:17:25.324Z,88.50
2023-10-05T02:22:25.263Z,88.61
2023-10-05T02:27:25.183Z,88.71
2023-10-05T02:32:25.097Z,88.71
2023-10-05T02:37:25.093Z,88.81
2023-10-05T02:42:24.970Z,88.81
2023-10-05T02:47:25.258Z,88.81
2023-10-05T02:52:24.929Z,88.61
2023-10-05T02:57:24.785Z,88.91
2023-10-05T03:02:24.694Z,89.08
2023-10-05T03:07:24.720Z,89.01
2023-10-05T03:12:24.586Z,89.32
2023-10-05T03:17:24.560Z,89.12
2023-10-05T03:22:24.479Z,89.42
2023-10-05T03:27:24.382Z,89.42
2023-10-05T03:32:25.879Z,89.42
2023-10-05T03:37:24.261Z,89.12
2023-10-05T03:42:24.176Z,89.18
2023-10-05T03:47:24.154Z,89.28
2023-10-05T03:52:24.062Z,89.18
2023-10-05T03:57:23.961Z,89.38
2023-10-05T04:02:23.914Z,89.69
2023-10-05T04:07:23.874Z,89.79
2023-10-05T04:12:23.766Z,89.79
2023-10-05T04:17:23.703Z,90.10
2023-10-05T04:22:23.656Z,90.10
2023-10-05T04:27:23.566Z,90.20
2023-10-05T04:32:23.499Z,90.05
2023-10-05T04:37:23.503Z,90.05
2023-10-05T04:42:23.366Z,89.95
2023-10-05T04:47:23.343Z,89.85
2023-10-05T04:52:23.283Z,89.50
2023-10-05T04:57:23.166Z,89.09
2023-10-05T05:02:23.243Z,88.18
2023-10-05T05:07:23.064Z,87.53
2023-10-05T05:12:22.988Z,87.42
2023-10-05T05:17:22.990Z,87.32
2023-10-05T05:22:22.921Z,86.81
2023-10-05T05:27:23.055Z,86.87
2023-10-05T05:32:22.715Z,86.57
2023-10-05T05:37:22.652Z,86.57
2023-10-05T05:42:22.564Z,86.73
2023-10-05T05:47:22.538Z,86.28
2023-10-05T05:52:22.490Z,85.06
2023-10-05T05:57:22.375Z,84.86
2023-10-05T06:02:22.352Z,84.86
2023-10-05T06:07:22.373Z,84.86
2023-10-05T06:12:22.169Z,84.66
2023-10-05T06:17:22.172Z,84.45
2023-10-05T06:22:22.076Z,84.55
2023-10-05T06:27:21.963Z,84.55
2023-10-05T06:32:21.894Z,84.31
2023-10-05T06:37:21.873Z,83.90
2023-10-05T06:42:21.773Z,83.76
2023-10-05T06:47:21.753Z,83.25
2023-10-05T06:52:21.635Z,83.22
2023-10-05T06:57:21.549Z,83.48
2023-10-05T07:02:21.623Z,82.73
2023-10-05T07:07:21.461Z,81.88
2023-10-05T07:12:21.576Z,80.73
2023-10-05T07:17:21.308Z,79.88
2023-10-05T07:22:21.285Z,76.99
2023-10-05T07:27:21.153Z,76.51
2023-10-05T07:32:21.126Z,75.51
2023-10-05T07:37:21.088Z,76.55
2023-10-05T07:42:20.984Z,76.55
2023-10-05T07:47:20.926Z,76.49
2023-10-05T07:52:20.892Z,76.19
2023-10-05T07:57:20.771Z,76.69
2023-10-05T08:02:20.828Z,75.78
2023-10-05T08:07:20.653Z,75.75
2023-10-05T08:12:20.579Z,73.88
2023-10-05T08:17:20.529Z,68.95
2023-10-05T08:22:20.485Z,63.70
2023-10-05T08:27:20.358Z,57.40
2023-10-05T08:32:20.311Z,53.46
2023-10-05T08:37:20.237Z,54.30
2023-10-05T08:42:20.160Z,57.99
2023-10-05T08:47:20.114Z,61.79
2023-10-05T08:52:20.421Z,63.76
2023-10-05T08:57:20.303Z,63.99
2023-10-05T09:02:20.663Z,63.33
2023-10-05T09:07:19.817Z,61.46
2023-10-05T09:12:19.783Z,59.47
2023-10-05T09:17:19.695Z,59.83
2023-10-05T09:22:19.689Z,60.18
2023-10-05T09:27:19.561Z,57.39
2023-10-05T09:32:19.595Z,55.85
2023-10-05T09:37:19.465Z,53.58
2023-10-05T09:42:19.369Z,52.11
2023-10-05T09:47:19.285Z,51.34
2023-10-05T09:52:19.250Z,54.18
2023-10-05T09:57:19.170Z,56.10
2023-10-05T10:02:19.103Z,54.53
2023-10-05T10:07:19.074Z,54.58
2023-10-05T10:12:18.979Z,55.11
2023-10-05T10:17:18.905Z,55.38
2023-10-05T10:22:19.054Z,54.73
2023-10-05T10:27:18.775Z,52.89
2023-10-05T10:32:18.744Z,51.99
2023-10-05T10:37:18.659Z,53.19
2023-10-05T10:42:18.592Z,53.31
2023-10-05T10:47:18.565Z,54.33
2023-10-05T10:52:27.050Z,55.18
2023-10-05T10:57:19.402Z,56.39
2023-10-05T11:02:18.337Z,59.10
2023-10-05T11:07:18.279Z,60.53
2023-10-05T11:12:18.194Z,60.03
2023-10-05T11:17:18.208Z,60.13
2023-10-05T11:22:18.065Z,59.68
2023-10-05T11:27:17.981Z,59.90
2023-10-05T11:32:25.776Z,60.46
2023-10-05T11:37:19.159Z,60.96
2023-10-05T11:42:17.818Z,61.46
2023-10-05T11:47:17.784Z,62.93
2023-10-05T11:52:17.665Z,62.40
2023-10-05T11:57:17.588Z,62.79
2023-10-05T12:02:17.660Z,62.09
2023-10-05T12:07:17.460Z,62.09
2023-10-05T12:12:17.400Z,61.92
2023-10-05T12:17:17.345Z,62.65
2023-10-05T12:22:17.274Z,62.06
2023-10-05T12:27:17.187Z,62.18
2023-10-05T12:32:17.131Z,62.71
2023-10-05T12:37:17.081Z,63.32
2023-10-05T12:42:17.753Z,63.72
2023-10-05T12:47:16.974Z,62.99
2023-10-05T12:52:16.895Z,62.56
2023-10-05T12:57:20.986Z,62.76
2023-10-05T13:02:17.297Z,62.79
2023-10-05T13:07:16.666Z,62.79
2023-10-05T13:12:16.579Z,62.79
2023-10-05T13:17:16.518Z,62.89
2023-10-05T13:22:16.481Z,63.29
2023-10-05T13:27:16.375Z,63.29
2023-10-05T13:32:16.436Z,62.89
2023-10-05T13:37:16.318Z,63.09
2023-10-05T13:42:16.183Z,63.29
2023-10-05T13:47:16.203Z,63.32
2023-10-05T13:52:16.094Z,63.82
2023-10-05T13:57:15.975Z,63.92
2023-10-05T14:02:15.904Z,63.01
2023-10-05T14:07:15.870Z,63.55
2023-10-05T14:12:15.771Z,64.16
2023-10-05T14:17:15.714Z,63.38
2023-10-05T14:22:15.710Z,63.18
2023-10-05T14:27:15.589Z,63.11
2023-10-05T14:32:15.501Z,65.72
2023-10-05T14:37:15.489Z,64.25
2023-10-05T14:42:15.546Z,66.26
2023-10-05T14:47:15.571Z,64.65
2023-10-05T14:52:15.348Z,64.45
2023-10-05T14:57:15.199Z,65.08
2023-10-05T15:02:15.140Z,64.98
2023-10-05T15:07:15.101Z,65.52
2023-10-05T15:12:14.992Z,66.12
2023-10-05T15:17:14.992Z,66.62
2023-10-05T15:22:14.870Z,66.52
2023-10-05T15:27:14.801Z,66.72
2023-10-05T15:32:14.722Z,67.33
2023-10-05T15:37:14.694Z,67.63
2023-10-05T15:42:14.596Z,67.76
2023-10-05T15:47:14.615Z,68.37
2023-10-05T15:52:14.487Z,68.37
2023-10-05T15:57:14.383Z,68.67
2023-10-05T16:02:14.369Z,68.70
2023-10-05T16:07:14.298Z,69.21
2023-10-05T16:12:14.183Z,69.21
2023-10-05T16:17:14.148Z,69.51
2023-10-05T16:22:14.044Z,69.85
2023-10-05T16:27:13.984Z,70.15
2023-10-05T16:32:13.924Z,70.15
2023-10-05T16:37:13.859Z,70.05
2023-10-05T16:42:13.775Z,70.48
2023-10-05T16:47:13.807Z,70.48
2023-10-05T16:52:13.655Z,71.09
2023-10-05T16:57:13.586Z,71.09
2023-10-05T17:02:13.537Z,71.90
2023-10-05T17:07:13.478Z,71.30
2023-10-05T17:12:13.394Z,71.50
2023-10-05T17:17:13.391Z,71.63
2023-10-05T17:22:13.233Z,71.93
2023-10-05T17:27:13.183Z,72.24
2023-10-05T17:32:13.132Z,72.44
2023-10-05T17:37:13.040Z,72.94
2023-10-05T17:42:12.960Z,73.05
2023-10-05T17:47:12.912Z,73.25
2023-10-05T17:52:12.840Z,73.48
2023-10-05T17:57:12.769Z,73.99
2023-10-05T18:02:12.845Z,74.09
2023-10-05T18:07:12.630Z,74.19
2023-10-05T18:12:12.569Z,74.19
2023-10-05T18:17:12.509Z,73.99
2023-10-05T18:22:12.446Z,74.09
2023-10-05T18:27:12.399Z,74.60
2023-10-05T18:32:12.406Z,74.19
2023-10-05T18:37:12.230Z,74.49
2023-10-05T18:42:12.169Z,74.49
2023-10-05T18:47:12.103Z,74.70
2023-10-05T18:52:12.028Z,74.80
2023-10-05T18:57:12.229Z,74.70
2023-10-05T19:02:11.995Z,74.60
2023-10-05T19:07:11.840Z,74.90
2023-10-05T19:12:11.765Z,75.24
2023-10-05T19:17:11.724Z,75.44
2023-10-05T19:22:11.626Z,75.54
2023-10-05T19:27:11.566Z,75.64
2023-10-05T19:32:11.503Z,75.95
2023-10-05T19:37:11.435Z,76.04
2023-10-05T19:42:11.408Z,76.15
2023-10-05T19:47:11.392Z,76.35
2023-10-05T19:52:11.225Z,76.66
2023-10-05T19:57:11.169Z,76.66
2023-10-05T20:02:11.185Z,76.55
2023-10-05T20:07:11.048Z,76.69
2023-10-05T20:12:10.979Z,76.89
2023-10-05T20:17:10.997Z,76.89
2023-10-05T20:22:10.838Z,77.30
2023-10-05T20:27:10.799Z,77.40
2023-10-05T20:32:10.697Z,77.40
2023-10-05T20:37:10.642Z,78.00
2023-10-05T20:42:10.569Z,78.24
2023-10-05T20:47:10.615Z,78.35
2023-10-05T20:52:10.434Z,78.65
2023-10-05T20:57:10.377Z,78.75
2023-10-05T21:02:10.296Z,78.96
2023-10-05T21:07:10.239Z,78.75
2023-10-05T21:12:10.175Z,79.19
2023-10-05T21:17:10.313Z,79.29
2023-10-05T21:22:10.050Z,79.40
2023-10-05T21:27:09.984Z,79.90
2023-10-05T21:32:09.919Z,80.14
2023-10-05T21:37:09.850Z,80.65
2023-10-05T21:42:09.780Z,80.79
2023-10-05T21:47:11.774Z,81.09
2023-10-05T21:52:09.649Z,81.20
2023-10-05T21:57:09.603Z,81.29
2023-10-05T22:02:09.566Z,81.23
2023-10-05T22:07:09.449Z,81.54
2023-10-05T22:12:09.391Z,81.33
2023-10-05T22:17:09.416Z,81.68
2023-10-05T22:22:09.231Z,81.57
2023-10-05T22:27:09.173Z,82.28
2023-10-05T22:32:09.100Z,81.98
2023-10-05T22:37:09.034Z,82.49
2023-10-05T22:42:09.008Z,82.69
2023-10-05T22:47:08.942Z,82.89
2023-10-05T22:52:08.831Z,82.89
2023-10-05T22:57:08.767Z,82.89
2023-10-05T23:02:08.745Z,83.00
2023-10-05T23:07:08.637Z,83.16
2023-10-05T23:12:08.560Z,82.95
2023-10-05T23:17:08.560Z,83.06
2023-10-05T23:22:08.425Z,83.06
2023-10-05T23:27:09.339Z,83.16
2023-10-05T23:32:08.355Z,82.86
2023-10-05T23:37:08.223Z,82.65
2023-10-05T23:42:08.134Z,82.65
2023-10-05T23:47:21.965Z,82.65
2023-10-05T23:52:09.039Z,82.45
2023-10-05T23:57:07.934Z,82.65
